createdAt,value
2018-11-14T00:00:28.570Z,5.17
2018-11-14T00:02:58.669Z,5.16
2018-11-14T00:05:27.932Z,5.17
2018-11-14T00:07:57.068Z,5.09
2018-11-14T00:10:26.306Z,5.05
2018-11-14T00:12:55.425Z,5.06
2018-11-14T00:15:25.471Z,5.03
2018-11-14T00:17:54.773Z,4.95
2018-11-14T00:20:24.325Z,4.95
2018-11-14T00:22:53.512Z,4.83
2018-11-14T00:25:23.025Z,4.80
2018-11-14T00:27:52.167Z,4.65
2018-11-14T00:30:24.781Z,4.59
2018-11-14T00:32:54.019Z,4.69
2018-11-14T00:35:23.201Z,4.72
2018-11-14T00:37:52.708Z,4.73
2018-11-14T00:40:22.033Z,4.72
2018-11-14T00:42:51.861Z,4.69
2018-11-14T00:45:22.205Z,4.70
2018-11-14T00:47:52.157Z,4.70
2018-11-14T00:50:21.701Z,4.65
2018-11-14T00:52:50.860Z,4.70
2018-11-14T00:55:21.137Z,4.70
2018-11-14T00:57:51.612Z,4.72
2018-11-14T01:01:52.301Z,4.77
2018-11-14T01:04:21.545Z,4.74
2018-11-14T01:06:50.682Z,4.68
2018-11-14T01:09:20.186Z,4.67
2018-11-14T01:11:49.510Z,4.57
2018-11-14T01:14:18.832Z,4.43
2018-11-14T01:16:47.998Z,4.43
2018-11-14T01:19:17.113Z,4.32
2018-11-14T01:21:46.550Z,4.23
2018-11-14T01:24:16.152Z,4.24
2018-11-14T01:26:45.313Z,4.09
2018-11-14T01:29:14.444Z,3.93
2018-11-14T01:31:43.921Z,4.00
2018-11-14T01:34:13.061Z,4.07
2018-11-14T01:36:42.125Z,3.83
2018-11-14T01:39:11.818Z,3.47
2018-11-14T01:41:41.765Z,3.34
2018-11-14T01:44:11.357Z,3.45
2018-11-14T01:46:40.593Z,3.62
2018-11-14T01:49:10.438Z,3.66
2018-11-14T01:51:39.612Z,3.67
2018-11-14T01:54:08.784Z,3.71
2018-11-14T01:56:37.898Z,3.71
2018-11-14T01:59:07.081Z,3.86
2018-11-14T02:01:36.169Z,3.86
2018-11-14T02:04:05.668Z,3.89
2018-11-14T02:06:34.833Z,3.85
2018-11-14T02:09:05.760Z,3.93
2018-11-14T02:11:36.344Z,3.97
2018-11-14T02:14:05.997Z,3.94
2018-11-14T02:16:35.144Z,3.93
2018-11-14T02:19:04.249Z,4.00
2018-11-14T02:21:33.444Z,4.00
2018-11-14T02:24:02.645Z,3.98
2018-11-14T02:26:31.761Z,3.87
2018-11-14T02:29:01.217Z,3.82
2018-11-14T02:31:30.312Z,3.80
2018-11-14T02:33:59.449Z,3.81
2018-11-14T02:36:28.597Z,3.80
2018-11-14T02:38:57.849Z,3.73
2018-11-14T02:41:27.034Z,3.70
2018-11-14T02:43:56.269Z,3.67
2018-11-14T02:46:25.414Z,3.67
2018-11-14T02:48:54.589Z,3.65
2018-11-14T02:51:25.985Z,3.63
2018-11-14T02:53:55.301Z,3.69
2018-11-14T02:56:24.417Z,3.70
2018-11-14T02:58:53.554Z,3.64
2018-11-14T03:01:22.662Z,3.71
2018-11-14T03:03:51.880Z,3.78
2018-11-14T03:06:21.034Z,3.74
2018-11-14T03:08:50.228Z,3.68
2018-11-14T03:11:19.368Z,3.63
2018-11-14T03:13:48.916Z,3.66
2018-11-14T03:16:18.025Z,3.68
2018-11-14T03:18:47.298Z,3.65
2018-11-14T03:21:16.437Z,3.68
2018-11-14T03:23:45.641Z,3.70
2018-11-14T03:26:14.846Z,3.60
2018-11-14T03:28:43.994Z,3.40
2018-11-14T03:31:13.097Z,3.50
2018-11-14T03:33:42.277Z,3.54
2018-11-14T03:36:18.270Z,3.60
2018-11-14T03:38:47.922Z,3.58
2018-11-14T03:41:17.492Z,3.59
2018-11-14T03:43:47.323Z,3.58
2018-11-14T03:46:16.645Z,3.54
2018-11-14T03:48:46.045Z,3.55
2018-11-14T03:51:15.625Z,3.62
2018-11-14T03:53:44.741Z,3.55
2018-11-14T03:56:13.809Z,3.45
2018-11-14T03:58:43.014Z,3.37
2018-11-14T04:01:12.102Z,3.34
2018-11-14T04:03:41.249Z,3.30
2018-11-14T04:06:10.465Z,3.34
2018-11-14T04:08:39.608Z,3.36
2018-11-14T04:11:08.777Z,3.30
2018-11-14T04:13:37.942Z,3.29
2018-11-14T04:16:07.109Z,3.25
2018-11-14T04:18:36.249Z,3.18
2018-11-14T04:21:05.901Z,3.24
2018-11-14T04:23:39.217Z,3.20
2018-11-14T04:26:08.276Z,3.08
2018-11-14T04:28:37.489Z,3.04
2018-11-14T04:31:06.941Z,3.01
2018-11-14T04:33:36.089Z,3.01
2018-11-14T04:36:05.417Z,2.88
2018-11-14T04:38:34.584Z,2.90
2018-11-14T04:41:03.704Z,2.89
2018-11-14T04:43:32.845Z,2.92
2018-11-14T04:46:01.988Z,2.87
2018-11-14T04:48:31.113Z,2.86
2018-11-14T04:51:00.334Z,2.87
2018-11-14T04:53:29.471Z,2.89
2018-11-14T04:55:58.598Z,2.89
2018-11-14T04:58:28.849Z,2.89
2018-11-14T05:00:58.356Z,2.88
2018-11-14T05:03:28.116Z,2.92
2018-11-14T05:05:57.397Z,2.92
2018-11-14T05:08:26.500Z,2.98
2018-11-14T05:10:55.645Z,3.01
2018-11-14T05:13:25.255Z,2.98
2018-11-14T05:15:54.389Z,3.04
2018-11-14T05:18:23.558Z,3.03
2018-11-14T05:20:52.652Z,3.11
2018-11-14T05:23:22.285Z,3.10
2018-11-14T05:25:51.444Z,3.16
2018-11-14T05:28:20.658Z,3.15
2018-11-14T05:30:49.789Z,3.18
2018-11-14T05:33:18.944Z,3.22
2018-11-14T05:35:48.569Z,3.26
2018-11-14T05:38:17.681Z,3.20
2018-11-14T05:40:46.769Z,3.09
2018-11-14T05:43:16.345Z,3.13
2018-11-14T05:45:45.507Z,3.17
2018-11-14T05:48:14.605Z,3.15
2018-11-14T05:50:43.757Z,3.13
2018-11-14T05:53:12.903Z,3.22
2018-11-14T05:55:41.948Z,3.20
2018-11-14T05:58:11.169Z,3.18
2018-11-14T06:00:40.285Z,3.16
2018-11-14T06:03:09.373Z,3.26
2018-11-14T06:05:38.560Z,3.11
2018-11-14T06:08:07.868Z,3.02
2018-11-14T06:10:37.472Z,3.13
2018-11-14T06:13:06.820Z,3.12
2018-11-14T06:15:36.269Z,3.09
2018-11-14T06:18:06.187Z,3.12
2018-11-14T06:20:35.337Z,3.13
2018-11-14T06:23:04.645Z,3.19
2018-11-14T06:25:37.157Z,3.22
2018-11-14T06:28:07.614Z,3.25
2018-11-14T06:30:38.213Z,3.25
2018-11-14T06:33:08.562Z,3.21
2018-11-14T06:35:38.173Z,3.17
2018-11-14T06:38:07.320Z,3.10
2018-11-14T06:40:36.504Z,3.16
2018-11-14T06:43:05.947Z,3.10
2018-11-14T06:45:35.859Z,3.10
2018-11-14T06:48:05.774Z,3.09
2018-11-14T06:50:35.548Z,3.18
2018-11-14T06:53:06.093Z,3.20
2018-11-14T06:55:36.237Z,3.04
2018-11-14T06:58:06.057Z,3.12
2018-11-14T07:00:36.474Z,3.14
2018-11-14T07:03:06.855Z,3.21
2018-11-14T07:05:36.221Z,3.20
2018-11-14T07:08:05.980Z,3.02
2018-11-14T07:10:36.396Z,3.18
2018-11-14T07:13:11.375Z,3.27
2018-11-14T07:15:41.457Z,3.45
2018-11-14T07:18:11.442Z,3.63
2018-11-14T07:20:42.082Z,3.65
2018-11-14T07:23:11.215Z,3.49
2018-11-14T07:25:41.169Z,3.56
2018-11-14T07:28:10.312Z,3.65
2018-11-14T07:30:39.549Z,3.69
2018-11-14T07:33:10.079Z,3.67
2018-11-14T07:35:39.192Z,3.64
2018-11-14T07:38:42.545Z,3.59
2018-11-14T07:41:15.659Z,3.55
2018-11-14T07:43:45.633Z,3.80
2018-11-14T07:46:15.699Z,4.16
2018-11-14T07:48:45.821Z,4.40
2018-11-14T07:51:15.096Z,4.50
2018-11-14T07:53:44.735Z,4.19
2018-11-14T07:56:15.194Z,4.61
2018-11-14T07:58:44.309Z,4.83
2018-11-14T08:01:13.712Z,4.67
2018-11-14T08:03:42.944Z,4.34
2018-11-14T08:06:12.152Z,5.00
2018-11-14T08:08:42.211Z,5.43
2018-11-14T08:11:11.729Z,5.53
2018-11-14T08:13:42.451Z,6.00
2018-11-14T08:16:11.597Z,6.21
2018-11-14T08:18:40.945Z,6.73
2018-11-14T08:21:10.377Z,7.45
2018-11-14T08:23:39.603Z,8.07
2018-11-14T08:26:08.901Z,8.38
2018-11-14T08:28:37.996Z,8.35
2018-11-14T08:31:07.558Z,8.97
2018-11-14T08:33:36.744Z,8.60
2018-11-14T08:36:06.355Z,8.89
2018-11-14T08:38:36.060Z,8.94
2018-11-14T08:41:05.530Z,9.35
2018-11-14T08:43:34.673Z,9.24
2018-11-14T08:46:03.968Z,9.34
2018-11-14T08:48:33.421Z,9.25
2018-11-14T08:51:02.574Z,8.83
2018-11-14T08:53:31.877Z,8.14
2018-11-14T08:56:01.073Z,8.06
2018-11-14T08:58:30.805Z,7.79
2018-11-14T09:00:59.920Z,7.67
2018-11-14T09:03:29.233Z,8.00
2018-11-14T09:05:58.324Z,8.12
2018-11-14T09:08:27.509Z,8.15
2018-11-14T09:10:56.737Z,8.52
2018-11-14T09:13:25.837Z,8.86
2018-11-14T09:15:54.978Z,8.80
2018-11-14T09:18:24.740Z,8.75
2018-11-14T09:20:54.017Z,8.69
2018-11-14T09:23:23.521Z,8.77
2018-11-14T09:25:52.729Z,8.68
2018-11-14T09:28:21.969Z,7.44
2018-11-14T09:30:51.309Z,8.15
2018-11-14T09:33:20.465Z,8.47
2018-11-14T09:35:50.993Z,8.67
2018-11-14T09:38:20.355Z,8.78
2018-11-14T09:40:49.575Z,8.97
2018-11-14T09:43:18.701Z,9.18
2018-11-14T09:45:48.065Z,9.44
2018-11-14T09:48:17.558Z,9.83
2018-11-14T09:50:46.649Z,10.28
2018-11-14T09:53:15.844Z,10.71
2018-11-14T09:55:45.090Z,11.86
2018-11-14T09:58:14.337Z,13.21
2018-11-14T10:00:43.830Z,14.03
2018-11-14T10:03:17.628Z,11.90
2018-11-14T10:05:46.874Z,11.76
2018-11-14T10:08:15.947Z,11.87
2018-11-14T10:10:45.121Z,15.12
2018-11-14T10:13:14.537Z,17.18
2018-11-14T10:15:43.890Z,18.79
2018-11-14T10:18:12.925Z,19.67
2018-11-14T10:20:42.188Z,20.44
2018-11-14T10:23:11.556Z,21.11
2018-11-14T10:25:40.784Z,18.81
2018-11-14T10:28:11.133Z,16.32
2018-11-14T10:30:40.557Z,17.09
2018-11-14T10:33:09.758Z,19.21
2018-11-14T10:35:38.877Z,17.28
2018-11-14T10:38:08.122Z,18.99
2018-11-14T10:40:37.873Z,18.47
2018-11-14T10:43:07.508Z,20.51
2018-11-14T10:45:36.724Z,21.69
2018-11-14T10:48:06.066Z,22.37
2018-11-14T10:50:35.215Z,22.42
2018-11-14T10:53:04.365Z,22.50
2018-11-14T10:55:33.565Z,21.39
2018-11-14T10:58:02.731Z,21.33
2018-11-14T11:00:37.145Z,21.10
2018-11-14T11:03:13.091Z,22.45
2018-11-14T11:05:47.497Z,22.92
2018-11-14T11:08:22.071Z,23.12
2018-11-14T11:10:56.465Z,22.72
2018-11-14T11:13:31.022Z,22.89
2018-11-14T11:16:05.353Z,23.04
2018-11-14T11:18:35.333Z,22.88
2018-11-14T11:21:04.565Z,22.62
2018-11-14T11:23:33.900Z,23.45
2018-11-14T11:26:02.953Z,23.63
2018-11-14T11:28:32.135Z,23.88
2018-11-14T11:31:01.423Z,24.23
2018-11-14T11:33:30.625Z,22.97
2018-11-14T11:35:59.898Z,23.53
2018-11-14T11:38:29.107Z,24.03
2018-11-14T11:40:58.385Z,22.55
2018-11-14T11:43:27.553Z,23.59
2018-11-14T11:45:56.864Z,22.06
2018-11-14T11:48:25.973Z,21.44
2018-11-14T11:50:55.110Z,19.74
2018-11-14T11:53:24.345Z,21.92
2018-11-14T11:55:53.610Z,21.96
2018-11-14T11:58:22.767Z,23.56
2018-11-14T12:00:51.884Z,23.88
2018-11-14T12:03:21.009Z,22.95
2018-11-14T12:05:50.255Z,20.20
2018-11-14T12:08:19.368Z,19.41
2018-11-14T12:10:48.606Z,19.17
2018-11-14T12:13:17.747Z,19.74
2018-11-14T12:15:46.841Z,21.27
2018-11-14T12:18:16.181Z,22.35
2018-11-14T12:20:45.305Z,21.68
2018-11-14T12:23:14.427Z,22.05
2018-11-14T12:25:43.656Z,19.60
2018-11-14T12:28:12.809Z,20.22
2018-11-14T12:30:42.145Z,21.52
2018-11-14T12:33:11.244Z,20.76
2018-11-14T12:35:40.477Z,22.13
2018-11-14T12:38:09.778Z,22.86
2018-11-14T12:40:40.004Z,23.28
2018-11-14T12:43:09.213Z,22.27
2018-11-14T12:45:38.378Z,22.75
2018-11-14T12:48:08.286Z,22.27
2018-11-14T12:50:37.445Z,20.54
2018-11-14T12:53:06.580Z,20.57
2018-11-14T12:55:35.841Z,22.17
2018-11-14T12:58:05.344Z,22.50
2018-11-14T13:00:34.531Z,23.10
2018-11-14T13:03:03.815Z,22.64
2018-11-14T13:05:32.919Z,22.65
2018-11-14T13:08:02.630Z,20.86
2018-11-14T13:10:32.133Z,19.57
2018-11-14T13:13:01.279Z,20.03
2018-11-14T13:15:30.387Z,20.00
2018-11-14T13:17:59.581Z,19.24
2018-11-14T13:20:28.693Z,19.13
2018-11-14T13:22:57.862Z,18.44
2018-11-14T13:25:27.115Z,18.40
2018-11-14T13:27:56.376Z,15.62
2018-11-14T13:30:25.563Z,15.67
2018-11-14T13:32:54.743Z,13.48
2018-11-14T13:35:24.522Z,13.63
2018-11-14T13:37:53.567Z,13.82
2018-11-14T13:40:22.709Z,14.17
2018-11-14T13:42:51.852Z,13.08
2018-11-14T13:45:21.530Z,13.23
2018-11-14T13:47:50.765Z,12.67
2018-11-14T13:50:22.086Z,12.69
2018-11-14T13:52:51.420Z,12.40
2018-11-14T13:55:21.546Z,12.39
2018-11-14T13:57:51.773Z,11.92
2018-11-14T14:00:22.749Z,11.95
2018-11-14T14:02:52.980Z,11.53
2018-11-14T14:05:23.482Z,11.99
2018-11-14T14:07:52.689Z,12.25
2018-11-14T14:10:22.460Z,12.20
2018-11-14T14:12:52.833Z,12.34
2018-11-14T14:15:24.341Z,11.93
2018-11-14T14:17:53.541Z,12.21
2018-11-14T14:20:23.083Z,12.24
2018-11-14T14:22:52.167Z,12.43
2018-11-14T14:25:22.409Z,12.54
2018-11-14T14:27:51.553Z,12.37
2018-11-14T14:30:21.960Z,12.05
2018-11-14T14:32:51.281Z,11.61
2018-11-14T14:35:21.476Z,11.60
2018-11-14T14:37:50.859Z,11.49
2018-11-14T14:40:21.272Z,10.97
2018-11-14T14:42:51.461Z,11.12
2018-11-14T14:45:24.045Z,11.05
2018-11-14T14:47:53.211Z,11.32
2018-11-14T14:50:23.841Z,11.39
2018-11-14T14:52:53.418Z,11.25
2018-11-14T14:55:23.957Z,11.26
2018-11-14T14:57:53.273Z,11.01
2018-11-14T15:00:23.860Z,11.18
2018-11-14T15:02:53.077Z,10.69
2018-11-14T15:05:22.381Z,10.12
2018-11-14T15:07:51.592Z,10.23
2018-11-14T15:10:21.897Z,10.55
2018-11-14T15:12:51.060Z,10.72
2018-11-14T15:15:21.430Z,10.61
2018-11-14T15:17:50.596Z,10.12
2018-11-14T15:20:23.613Z,9.85
2018-11-14T15:22:53.950Z,9.88
2018-11-14T15:25:23.844Z,9.93
2018-11-14T15:27:53.402Z,9.89
2018-11-14T15:30:26.507Z,10.00
2018-11-14T15:32:56.013Z,10.04
2018-11-14T15:35:25.863Z,9.81
2018-11-14T15:37:54.851Z,9.94
2018-11-14T15:40:25.450Z,9.95
2018-11-14T15:42:54.686Z,9.95
2018-11-14T15:45:25.149Z,9.99
2018-11-14T15:47:54.352Z,9.98
2018-11-14T15:50:26.525Z,9.84
2018-11-14T15:52:57.389Z,9.73
2018-11-14T15:55:26.556Z,9.69
2018-11-14T15:57:56.193Z,9.56
2018-11-14T16:00:27.461Z,9.48
2018-11-14T16:02:57.350Z,9.45
2018-11-14T16:05:27.923Z,9.25
2018-11-14T16:07:58.277Z,9.13
2018-11-14T16:10:28.341Z,9.01
2018-11-14T16:12:57.435Z,8.93
2018-11-14T16:15:41.086Z,8.82
2018-11-14T16:18:10.268Z,8.77
2018-11-14T16:20:39.337Z,8.65
2018-11-14T16:23:08.528Z,8.63
2018-11-14T16:25:38.297Z,8.35
2018-11-14T16:28:07.522Z,8.23
2018-11-14T16:30:37.914Z,8.20
2018-11-14T16:33:08.352Z,8.17
2018-11-14T16:35:37.509Z,8.02
2018-11-14T16:38:07.787Z,8.00
2018-11-14T16:40:36.953Z,8.00
2018-11-14T16:43:07.778Z,7.97
2018-11-14T16:45:36.926Z,7.88
2018-11-14T16:48:06.069Z,7.82
2018-11-14T16:50:35.244Z,7.75
2018-11-14T16:53:05.037Z,7.75
2018-11-14T16:55:34.624Z,7.45
2018-11-14T16:58:03.780Z,7.65
2018-11-14T17:00:33.069Z,7.61
2018-11-14T17:03:02.873Z,7.69
2018-11-14T17:05:32.646Z,7.63
2018-11-14T17:08:02.496Z,7.77
2018-11-14T17:10:31.601Z,7.67
2018-11-14T17:13:01.607Z,7.79
2018-11-14T17:15:31.136Z,7.86
2018-11-14T17:18:00.225Z,7.19
2018-11-14T17:20:30.361Z,7.49
2018-11-14T17:22:59.451Z,7.58
2018-11-14T17:25:29.811Z,7.54
2018-11-14T17:27:58.944Z,7.73
2018-11-14T17:30:28.629Z,7.84
2018-11-14T17:32:57.740Z,7.92
2018-11-14T17:35:26.862Z,7.97
2018-11-14T17:37:56.050Z,8.02
2018-11-14T17:40:26.692Z,7.96
2018-11-14T17:42:55.990Z,8.10
2018-11-14T17:45:26.993Z,8.19
2018-11-14T17:47:56.478Z,8.15
2018-11-14T17:50:28.538Z,8.09
2018-11-14T17:52:58.605Z,7.99
2018-11-14T17:55:28.680Z,8.00
2018-11-14T17:57:57.729Z,7.91
2018-11-14T18:00:28.517Z,7.78
2018-11-14T18:02:57.731Z,7.78
2018-11-14T18:05:28.378Z,7.93
2018-11-14T18:07:57.988Z,7.64
2018-11-14T18:10:28.756Z,7.29
2018-11-14T18:12:59.044Z,7.51
2018-11-14T18:15:28.172Z,7.61
2018-11-14T18:17:57.762Z,7.66
2018-11-14T18:20:28.917Z,7.81
2018-11-14T18:22:58.592Z,7.64
2018-11-14T18:25:28.109Z,7.77
2018-11-14T18:27:57.349Z,7.73
2018-11-14T18:30:27.897Z,7.52
2018-11-14T18:32:57.782Z,7.61
2018-11-14T18:35:27.565Z,7.66
2018-11-14T18:37:58.092Z,7.69
2018-11-14T18:40:29.244Z,7.55
2018-11-14T18:42:58.435Z,7.49
2018-11-14T18:45:32.082Z,7.31
2018-11-14T18:48:02.105Z,7.27
2018-11-14T18:50:31.416Z,7.28
2018-11-14T18:53:00.677Z,7.24
2018-11-14T18:55:31.257Z,7.07
2018-11-14T18:58:01.145Z,6.88
2018-11-14T19:00:32.221Z,6.84
2018-11-14T19:03:01.477Z,7.00
2018-11-14T19:05:30.741Z,7.14
2018-11-14T19:08:00.265Z,6.99
2018-11-14T19:10:30.785Z,6.76
2018-11-14T19:13:00.134Z,6.92
2018-11-14T19:15:30.689Z,7.18
2018-11-14T19:17:59.857Z,7.18
2018-11-14T19:20:31.617Z,6.95
2018-11-14T19:23:01.551Z,6.76
2018-11-14T19:25:31.985Z,6.94
2018-11-14T19:28:01.137Z,7.08
2018-11-14T19:30:31.848Z,7.13
2018-11-14T19:33:01.597Z,7.27
2018-11-14T19:35:30.952Z,7.43
2018-11-14T19:38:00.393Z,7.41
2018-11-14T19:40:33.048Z,7.53
2018-11-14T19:43:03.782Z,7.40
2018-11-14T19:45:34.580Z,7.36
2018-11-14T19:48:04.829Z,7.08
2018-11-14T19:50:34.164Z,6.91
2018-11-14T19:53:03.409Z,6.88
2018-11-14T19:55:33.722Z,6.86
2018-11-14T19:58:04.130Z,6.87
2018-11-14T20:00:34.428Z,6.69
2018-11-14T20:03:03.926Z,6.72
2018-11-14T20:05:33.053Z,6.70
2018-11-14T20:08:02.191Z,6.80
2018-11-14T20:10:32.719Z,6.98
2018-11-14T20:13:01.760Z,6.89
2018-11-14T20:15:32.608Z,6.92
2018-11-14T20:18:01.768Z,6.99
2018-11-14T20:20:36.463Z,7.09
2018-11-14T20:23:06.021Z,7.14
2018-11-14T20:25:35.499Z,7.02
2018-11-14T20:28:04.609Z,6.97
2018-11-14T20:30:35.096Z,6.95
2018-11-14T20:33:06.488Z,7.05
2018-11-14T20:35:35.649Z,7.08
2018-11-14T20:38:05.289Z,7.14
2018-11-14T20:40:37.975Z,7.08
2018-11-14T20:43:08.046Z,7.03
2018-11-14T20:45:37.185Z,7.21
2018-11-14T20:48:06.448Z,6.86
2018-11-14T20:50:35.856Z,6.39
2018-11-14T20:53:06.101Z,6.68
2018-11-14T20:55:36.218Z,6.92
2018-11-14T20:58:05.489Z,7.10
2018-11-14T21:00:36.147Z,7.07
2018-11-14T21:03:06.135Z,7.07
2018-11-14T21:05:35.275Z,7.23
2018-11-14T21:08:04.541Z,7.18
2018-11-14T21:10:34.649Z,7.15
2018-11-14T21:13:04.736Z,7.10
2018-11-14T21:15:35.429Z,7.22
2018-11-14T21:18:04.872Z,7.39
2018-11-14T21:20:34.045Z,7.34
2018-11-14T21:23:03.260Z,7.39
2018-11-14T21:25:32.341Z,7.37
2018-11-14T21:28:01.489Z,7.38
2018-11-14T21:30:31.145Z,7.35
2018-11-14T21:33:00.261Z,7.30
2018-11-14T21:35:34.768Z,7.19
2018-11-14T21:38:05.301Z,7.17
2018-11-14T21:40:34.449Z,7.13
2018-11-14T21:43:04.206Z,6.94
2018-11-14T21:45:33.319Z,6.58
2018-11-14T21:48:07.890Z,6.63
2018-11-14T21:50:37.004Z,6.41
2018-11-14T21:53:06.276Z,6.26
2018-11-14T21:55:35.498Z,6.36
2018-11-14T21:58:04.813Z,6.43
2018-11-14T22:00:34.942Z,6.83
2018-11-14T22:03:04.640Z,6.98
2018-11-14T22:05:34.248Z,7.03
2018-11-14T22:08:03.400Z,7.22
2018-11-14T22:10:32.857Z,7.38
2018-11-14T22:13:02.017Z,7.49
2018-11-14T22:15:31.863Z,7.24
2018-11-14T22:18:01.057Z,7.49
2018-11-14T22:20:30.711Z,7.55
2018-11-14T22:22:59.821Z,7.66
2018-11-14T22:25:30.175Z,7.57
2018-11-14T22:27:59.389Z,7.68
2018-11-14T22:30:30.880Z,7.55
2018-11-14T22:33:00.525Z,7.49
2018-11-14T22:35:30.897Z,7.57
2018-11-14T22:38:00.172Z,7.69
2018-11-14T22:40:30.637Z,7.80
2018-11-14T22:42:59.785Z,7.93
2018-11-14T22:45:30.381Z,7.94
2018-11-14T22:47:59.501Z,7.92
2018-11-14T22:50:28.676Z,7.92
2018-11-14T22:52:57.781Z,7.90
2018-11-14T22:55:27.528Z,7.82
2018-11-14T22:57:56.835Z,7.96
2018-11-14T23:00:57.973Z,7.98
2018-11-14T23:03:27.089Z,8.01
2018-11-14T23:05:56.268Z,7.67
2018-11-14T23:08:25.352Z,7.81
2018-11-14T23:10:54.524Z,7.79
2018-11-14T23:13:23.661Z,7.83
2018-11-14T23:15:52.873Z,7.76
2018-11-14T23:18:22.075Z,7.56
2018-11-14T23:20:51.253Z,7.84
2018-11-14T23:23:20.535Z,7.58
2018-11-14T23:25:51.029Z,7.47
2018-11-14T23:28:20.627Z,7.41
2018-11-14T23:30:49.805Z,7.20
2018-11-14T23:33:18.950Z,7.02
2018-11-14T23:35:48.133Z,7.20
2018-11-14T23:38:17.248Z,7.32
2018-11-14T23:40:46.425Z,7.07
2018-11-14T23:43:16.072Z,7.34
2018-11-14T23:45:45.293Z,7.16
2018-11-14T23:48:14.361Z,7.17
2018-11-14T23:50:43.573Z,7.44
2018-11-14T23:53:12.749Z,7.37
2018-11-14T23:55:41.893Z,7.28
2018-11-14T23:58:11.116Z,7.29
